sensor_id;sensor_type;location;lat;lon;timestamp;pressure;altitude;pressure_sealevel;temperature;humidity
30516;BME280;17297;54.022;10.760;2023-02-22T00:01:22;101622.59;;;9.72;64.19
30516;BME280;17297;54.022;10.760;2023-02-22T00:04:02;101628.78;;;9.73;64.11
30516;BME280;17297;54.022;10.760;2023-02-22T00:06:28;101619.91;;;9.72;64.07
30516;BME280;17297;54.022;10.760;2023-02-22T00:08:55;101630.78;;;9.70;64.07
30516;BME280;17297;54.022;10.760;2023-02-22T00:11:21;101619.38;;;9.68;64.22
30516;BME280;17297;54.022;10.760;2023-02-22T00:13:47;101627.41;;;9.68;64.29
30516;BME280;17297;54.022;10.760;2023-02-22T00:16:19;101618.84;;;9.65;64.40
30516;BME280;17297;54.022;10.760;2023-02-22T00:18:45;101621.41;;;9.66;64.40
30516;BME280;17297;54.022;10.760;2023-02-22T00:21:12;101628.63;;;9.66;64.26
30516;BME280;17297;54.022;10.760;2023-02-22T00:23:41;101622.22;;;9.67;64.29
30516;BME280;17297;54.022;10.760;2023-02-22T00:26:15;101617.69;;;9.67;64.39
30516;BME280;17297;54.022;10.760;2023-02-22T00:28:49;101616.69;;;9.68;64.60
30516;BME280;17297;54.022;10.760;2023-02-22T00:31:15;101614.69;;;9.70;64.53
30516;BME280;17297;54.022;10.760;2023-02-22T00:33:41;101614.53;;;9.72;64.40
30516;BME280;17297;54.022;10.760;2023-02-22T00:36:08;101609.97;;;9.73;64.38
30516;BME280;17297;54.022;10.760;2023-02-22T00:38:34;101615.19;;;9.74;64.41
30516;BME280;17297;54.022;10.760;2023-02-22T00:41:01;101609.81;;;9.74;64.46
30516;BME280;17297;54.022;10.760;2023-02-22T00:43:26;101609.81;;;9.74;64.31
30516;BME280;17297;54.022;10.760;2023-02-22T00:45:51;101608.28;;;9.71;64.26
30516;BME280;17297;54.022;10.760;2023-02-22T00:48:18;101606.78;;;9.69;64.30
30516;BME280;17297;54.022;10.760;2023-02-22T00:50:43;101606.13;;;9.67;64.33
30516;BME280;17297;54.022;10.760;2023-02-22T00:53:10;101608.94;;;9.65;64.54
30516;BME280;17297;54.022;10.760;2023-02-22T00:55:36;101611.47;;;9.67;64.78
30516;BME280;17297;54.022;10.760;2023-02-22T00:58:03;101611.31;;;9.68;64.77
30516;BME280;17297;54.022;10.760;2023-02-22T01:00:37;101612.31;;;9.67;64.52
30516;BME280;17297;54.022;10.760;2023-02-22T01:03:05;101605.09;;;9.68;64.61
30516;BME280;17297;54.022;10.760;2023-02-22T01:05:31;101611.31;;;9.68;64.55
30516;BME280;17297;54.022;10.760;2023-02-22T01:07:58;101615.84;;;9.68;64.69
30516;BME280;17297;54.022;10.760;2023-02-22T01:10:27;101611.31;;;9.68;64.69
30516;BME280;17297;54.022;10.760;2023-02-22T01:12:54;101612.16;;;9.69;64.69
30516;BME280;17297;54.022;10.760;2023-02-22T01:15:22;101612.16;;;9.69;64.87
30516;BME280;17297;54.022;10.760;2023-02-22T01:17:49;101618.38;;;9.69;64.79
30516;BME280;17297;54.022;10.760;2023-02-22T01:20:16;101616.16;;;9.65;64.63
30516;BME280;17297;54.022;10.760;2023-02-22T01:22:47;101608.94;;;9.65;64.88
30516;BME280;17297;54.022;10.760;2023-02-22T01:25:16;101614.31;;;9.65;64.87
30516;BME280;17297;54.022;10.760;2023-02-22T01:27:42;101612.50;;;9.66;64.79
30516;BME280;17297;54.022;10.760;2023-02-22T01:30:11;101617.88;;;9.66;64.83
30516;BME280;17297;54.022;10.760;2023-02-22T01:32:38;101604.44;;;9.66;64.87
30516;BME280;17297;54.022;10.760;2023-02-22T01:35:06;101606.13;;;9.67;64.97
30516;BME280;17297;54.022;10.760;2023-02-22T01:37:34;101599.91;;;9.66;64.95
30516;BME280;17297;54.022;10.760;2023-02-22T01:40:00;101598.19;;;9.65;65.01
30516;BME280;17297;54.022;10.760;2023-02-22T01:42:29;101599.91;;;9.66;64.92
30516;BME280;17297;54.022;10.760;2023-02-22T01:47:57;101593.69;;;9.66;64.97
30516;BME280;17297;54.022;10.760;2023-02-22T01:50:25;101609.81;;;9.66;64.92
30516;BME280;17297;54.022;10.760;2023-02-22T01:52:51;101600.88;;;9.65;64.99
30516;BME280;17297;54.022;10.760;2023-02-22T01:55:17;101599.41;;;9.63;64.81
30516;BME280;17297;54.022;10.760;2023-02-22T01:57:44;101597.19;;;9.58;64.93
30516;BME280;17297;54.022;10.760;2023-02-22T02:00:14;101600.22;;;9.55;64.86
30516;BME280;17297;54.022;10.760;2023-02-22T02:02:43;101607.59;;;9.53;65.11
30516;BME280;17297;54.022;10.760;2023-02-22T02:05:11;101596.84;;;9.53;65.00
30516;BME280;17297;54.022;10.760;2023-02-22T02:07:38;101603.41;;;9.51;64.98
30516;BME280;17297;54.022;10.760;2023-02-22T02:10:10;101598.38;;;9.47;65.01
30516;BME280;17297;54.022;10.760;2023-02-22T02:12:42;101598.50;;;9.46;64.85
30516;BME280;17297;54.022;10.760;2023-02-22T02:15:31;101593.47;;;9.43;65.06
30516;BME280;17297;54.022;10.760;2023-02-22T02:18:00;101588.59;;;9.38;65.12
30516;BME280;17297;54.022;10.760;2023-02-22T02:34:54;101567.75;;;9.24;65.12
30516;BME280;17297;54.022;10.760;2023-02-22T02:42:50;101564.06;;;9.17;65.13
30516;BME280;17297;54.022;10.760;2023-02-22T02:45:23;101570.59;;;9.14;65.11
30516;BME280;17297;54.022;10.760;2023-02-22T02:47:54;101571.75;;;9.12;65.23
30516;BME280;17297;54.022;10.760;2023-02-22T02:50:29;101571.94;;;9.10;65.30
30516;BME280;17297;54.022;10.760;2023-02-22T02:52:58;101571.75;;;9.12;65.27
30516;BME280;17297;54.022;10.760;2023-02-22T02:55:28;101571.75;;;9.12;65.45
30516;BME280;17297;54.022;10.760;2023-02-22T02:57:54;101570.75;;;9.13;65.38
30516;BME280;17297;54.022;10.760;2023-02-22T03:00:24;101566.22;;;9.13;65.46
30516;BME280;17297;54.022;10.760;2023-02-22T03:02:56;101574.09;;;9.15;65.51
30516;BME280;17297;54.022;10.760;2023-02-22T03:14:17;101568.22;;;9.11;65.44
30516;BME280;17297;54.022;10.760;2023-02-22T03:16:55;101565.53;;;9.11;65.27
30516;BME280;17297;54.022;10.760;2023-02-22T03:19:36;101561.00;;;9.12;65.47
30516;BME280;17297;54.022;10.760;2023-02-22T03:24:48;101556.34;;;9.14;65.55
30516;BME280;17297;54.022;10.760;2023-02-22T03:27:27;101558.84;;;9.15;65.41
30516;BME280;17297;54.022;10.760;2023-02-22T03:30:00;101558.84;;;9.15;65.48
30516;BME280;17297;54.022;10.760;2023-02-22T03:32:34;101552.47;;;9.16;65.42
30516;BME280;17297;54.022;10.760;2023-02-22T03:35:09;101553.13;;;9.18;65.51
30516;BME280;17297;54.022;10.760;2023-02-22T03:37:40;101560.22;;;9.19;65.53
30516;BME280;17297;54.022;10.760;2023-02-22T03:40:11;101555.66;;;9.20;65.57
30516;BME280;17297;54.022;10.760;2023-02-22T03:42:40;101558.19;;;9.21;65.60
30516;BME280;17297;54.022;10.760;2023-02-22T03:45:08;101557.19;;;9.22;65.57
30516;BME280;17297;54.022;10.760;2023-02-22T03:47:40;101558.69;;;9.25;65.51
30516;BME280;17297;54.022;10.760;2023-02-22T03:50:10;101550.47;;;9.27;65.78
30516;BME280;17297;54.022;10.760;2023-02-22T03:52:37;101554.69;;;9.29;65.70
30516;BME280;17297;54.022;10.760;2023-02-22T03:55:09;101549.31;;;9.29;65.49
30516;BME280;17297;54.022;10.760;2023-02-22T03:57:40;101546.78;;;9.28;65.63
30516;BME280;17297;54.022;10.760;2023-02-22T04:00:10;101547.09;;;9.24;65.61
30516;BME280;17297;54.022;10.760;2023-02-22T04:02:40;101549.28;;;9.21;65.45
30516;BME280;17297;54.022;10.760;2023-02-22T04:05:09;101548.78;;;9.17;65.72
30516;BME280;17297;54.022;10.760;2023-02-22T04:07:35;101543.59;;;9.16;65.65
30516;BME280;17297;54.022;10.760;2023-02-22T04:10:01;101543.91;;;9.13;65.68
30516;BME280;17297;54.022;10.760;2023-02-22T04:12:29;101552.13;;;9.11;65.75
30516;BME280;17297;54.022;10.760;2023-02-22T04:14:59;101547.78;;;9.10;65.72
30516;BME280;17297;54.022;10.760;2023-02-22T04:17:25;101549.75;;;9.08;65.75
30516;BME280;17297;54.022;10.760;2023-02-22T04:19:50;101548.75;;;9.09;65.88
30516;BME280;17297;54.022;10.760;2023-02-22T04:22:17;101544.91;;;9.12;65.98
30516;BME280;17297;54.022;10.760;2023-02-22T04:24:44;101554.81;;;9.11;65.68
30516;BME280;17297;54.022;10.760;2023-02-22T04:27:10;101551.28;;;9.11;65.72
30516;BME280;17297;54.022;10.760;2023-02-22T04:29:38;101548.75;;;9.09;65.89
30516;BME280;17297;54.022;10.760;2023-02-22T04:32:05;101551.44;;;9.09;65.87
30516;BME280;17297;54.022;10.760;2023-02-22T04:34:31;101547.91;;;9.09;66.02
30516;BME280;17297;54.022;10.760;2023-02-22T04:36:56;101546.94;;;9.10;65.86
30516;BME280;17297;54.022;10.760;2023-02-22T04:39:22;101549.44;;;9.11;65.89
30516;BME280;17297;54.022;10.760;2023-02-22T04:41:49;101549.09;;;9.14;66.04
30516;BME280;17297;54.022;10.760;2023-02-22T04:44:15;101547.44;;;9.13;65.86
30516;BME280;17297;54.022;10.760;2023-02-22T04:46:41;101544.25;;;9.10;66.04
30516;BME280;17297;54.022;10.760;2023-02-22T04:49:06;101544.56;;;9.07;65.86
30516;BME280;17297;54.022;10.760;2023-02-22T04:51:34;101549.06;;;9.06;66.06
30516;BME280;17297;54.022;10.760;2023-02-22T04:54:05;101548.41;;;9.04;66.08
30516;BME280;17297;54.022;10.760;2023-02-22T04:56:33;101554.63;;;9.05;66.02
30516;BME280;17297;54.022;10.760;2023-02-22T04:58:59;101550.94;;;9.06;66.30
30516;BME280;17297;54.022;10.760;2023-02-22T05:01:24;101549.75;;;9.08;66.35
30516;BME280;17297;54.022;10.760;2023-02-22T05:03:50;101553.97;;;9.11;66.22
30516;BME280;17297;54.022;10.760;2023-02-22T05:06:17;101555.50;;;9.13;66.18
30516;BME280;17297;54.022;10.760;2023-02-22T05:08:42;101548.97;;;9.16;66.35
30516;BME280;17297;54.022;10.760;2023-02-22T05:11:08;101556.66;;;9.19;66.35
30516;BME280;17297;54.022;10.760;2023-02-22T05:13:34;101544.94;;;9.20;66.17
30516;BME280;17297;54.022;10.760;2023-02-22T05:16:00;101542.06;;;9.21;66.42
30516;BME280;17297;54.022;10.760;2023-02-22T05:18:26;101556.19;;;9.23;66.31
30516;BME280;17297;54.022;10.760;2023-02-22T05:20:52;101545.13;;;9.27;66.35
30516;BME280;17297;54.022;10.760;2023-02-22T05:23:17;101550.31;;;9.28;66.22
30516;BME280;17297;54.022;10.760;2023-02-22T05:25:43;101544.94;;;9.28;66.20
30516;BME280;17297;54.022;10.760;2023-02-22T05:28:13;101544.28;;;9.26;66.24
30516;BME280;17297;54.022;10.760;2023-02-22T05:30:39;101548.97;;;9.24;66.30
30516;BME280;17297;54.022;10.760;2023-02-22T05:33:04;101544.75;;;9.21;66.34
30516;BME280;17297;54.022;10.760;2023-02-22T05:35:30;101542.56;;;9.17;66.29
30516;BME280;17297;54.022;10.760;2023-02-22T05:37:56;101545.59;;;9.14;66.30
30516;BME280;17297;54.022;10.760;2023-02-22T05:40:24;101547.44;;;9.13;66.56
30516;BME280;17297;54.022;10.760;2023-02-22T05:42:52;101546.44;;;9.14;66.34
30516;BME280;17297;54.022;10.760;2023-02-22T05:45:20;101549.81;;;9.16;66.68
30516;BME280;17297;54.022;10.760;2023-02-22T05:47:46;101543.41;;;9.17;66.46
30516;BME280;17297;54.022;10.760;2023-02-22T05:50:12;101539.72;;;9.18;66.58
30516;BME280;17297;54.022;10.760;2023-02-22T05:52:38;101553.97;;;9.19;66.43
30516;BME280;17297;54.022;10.760;2023-02-22T05:55:05;101546.94;;;9.18;66.38
30516;BME280;17297;54.022;10.760;2023-02-22T05:57:31;101551.47;;;9.17;66.57
30516;BME280;17297;54.022;10.760;2023-02-22T05:59:56;101557.16;;;9.14;66.38
30516;BME280;17297;54.022;10.760;2023-02-22T06:02:22;101552.81;;;9.13;66.61
30516;BME280;17297;54.022;10.760;2023-02-22T06:04:47;101553.13;;;9.10;66.53
30516;BME280;17297;54.022;10.760;2023-02-22T06:07:13;101558.84;;;9.07;66.53
30516;BME280;17297;54.022;10.760;2023-02-22T06:09:39;101553.59;;;9.06;66.46
30516;BME280;17297;54.022;10.760;2023-02-22T06:12:05;101558.16;;;9.05;66.60
30516;BME280;17297;54.022;10.760;2023-02-22T06:14:30;101558.97;;;9.06;66.78
30516;BME280;17297;54.022;10.760;2023-02-22T06:16:56;101562.50;;;9.06;66.91
30516;BME280;17297;54.022;10.760;2023-02-22T06:19:23;101561.50;;;9.07;66.73
30516;BME280;17297;54.022;10.760;2023-02-22T06:21:50;101564.03;;;9.09;66.88
30516;BME280;17297;54.022;10.760;2023-02-22T06:24:15;101563.19;;;9.08;66.80
30516;BME280;17297;54.022;10.760;2023-02-22T06:26:41;101567.53;;;9.09;66.81
30516;BME280;17297;54.022;10.760;2023-02-22T06:29:06;101558.66;;;9.09;66.83
30516;BME280;17297;54.022;10.760;2023-02-22T06:31:32;101564.72;;;9.11;66.93
30516;BME280;17297;54.022;10.760;2023-02-22T06:33:58;101563.88;;;9.10;66.82
30516;BME280;17297;54.022;10.760;2023-02-22T06:36:23;101565.72;;;9.10;66.96
30516;BME280;17297;54.022;10.760;2023-02-22T06:38:49;101559.66;;;9.08;67.04
30516;BME280;17297;54.022;10.760;2023-02-22T06:41:14;101553.47;;;9.07;66.81
30516;BME280;17297;54.022;10.760;2023-02-22T06:43:40;101564.19;;;9.07;67.04
30516;BME280;17297;54.022;10.760;2023-02-22T06:46:10;101549.75;;;9.08;67.16
30516;BME280;17297;54.022;10.760;2023-02-22T06:48:36;101562.16;;;9.09;67.24
30516;BME280;17297;54.022;10.760;2023-02-22T06:51:06;101559.34;;;9.11;67.15
30516;BME280;17297;54.022;10.760;2023-02-22T06:53:33;101559.34;;;9.11;67.12
30516;BME280;17297;54.022;10.760;2023-02-22T06:55:58;101558.66;;;9.09;66.97
30516;BME280;17297;54.022;10.760;2023-02-22T06:58:24;101566.69;;;9.09;66.80
30516;BME280;17297;54.022;10.760;2023-02-22T07:00:50;101558.84;;;9.07;67.08
30516;BME280;17297;54.022;10.760;2023-02-22T07:03:15;101557.34;;;9.13;67.09
30516;BME280;17297;54.022;10.760;2023-02-22T07:05:41;101555.81;;;9.18;67.11
30516;BME280;17297;54.022;10.760;2023-02-22T07:08:07;101554.66;;;9.21;67.21
30516;BME280;17297;54.022;10.760;2023-02-22T07:10:34;101559.88;;;9.22;67.28
30516;BME280;17297;54.022;10.760;2023-02-22T07:13:01;101567.94;;;9.22;66.96
30516;BME280;17297;54.022;10.760;2023-02-22T07:15:28;101567.75;;;9.24;67.21
30516;BME280;17297;54.022;10.760;2023-02-22T07:17:54;101564.25;;;9.23;67.05
30516;BME280;17297;54.022;10.760;2023-02-22T07:20:21;101561.88;;;9.20;67.34
30516;BME280;17297;54.022;10.760;2023-02-22T07:22:47;101565.72;;;9.18;67.33
30516;BME280;17297;54.022;10.760;2023-02-22T07:25:13;101562.38;;;9.16;67.28
30516;BME280;17297;54.022;10.760;2023-02-22T07:27:40;101570.44;;;9.16;67.38
30516;BME280;17297;54.022;10.760;2023-02-22T07:30:21;101567.91;;;9.14;67.41
30516;BME280;17297;54.022;10.760;2023-02-22T07:32:51;101569.56;;;9.15;67.50
30516;BME280;17297;54.022;10.760;2023-02-22T07:35:21;101576.13;;;9.13;67.54
30516;BME280;17297;54.022;10.760;2023-02-22T07:37:47;101573.59;;;9.11;67.38
30516;BME280;17297;54.022;10.760;2023-02-22T07:40:14;101578.28;;;9.09;67.40
30516;BME280;17297;54.022;10.760;2023-02-22T07:45:27;101578.94;;;9.03;67.77
30516;BME280;17297;54.022;10.760;2023-02-22T07:47:53;101575.41;;;9.02;67.62
30516;BME280;17297;54.022;10.760;2023-02-22T07:50:21;101587.16;;;9.01;67.94
30516;BME280;17297;54.022;10.760;2023-02-22T07:52:49;101582.81;;;9.00;67.78
30516;BME280;17297;54.022;10.760;2023-02-22T07:55:16;101579.56;;;8.97;68.06
30516;BME280;17297;54.022;10.760;2023-02-22T07:57:44;101578.09;;;8.94;67.90
30516;BME280;17297;54.022;10.760;2023-02-22T08:00:12;101585.44;;;8.92;67.99
30516;BME280;17297;54.022;10.760;2023-02-22T08:02:40;101584.75;;;8.90;68.36
30516;BME280;17297;54.022;10.760;2023-02-22T08:05:07;101582.25;;;8.89;68.33
30516;BME280;17297;54.022;10.760;2023-02-22T08:07:32;101583.09;;;8.89;68.27
30516;BME280;17297;54.022;10.760;2023-02-22T08:09:58;101582.25;;;8.89;68.46
30516;BME280;17297;54.022;10.760;2023-02-22T08:12:23;101585.91;;;8.88;68.37
30516;BME280;17297;54.022;10.760;2023-02-22T08:14:49;101580.53;;;8.88;68.35
30516;BME280;17297;54.022;10.760;2023-02-22T08:17:14;101580.22;;;8.91;68.35
30516;BME280;17297;54.022;10.760;2023-02-22T08:19:40;101578.09;;;8.94;68.42
30516;BME280;17297;54.022;10.760;2023-02-22T08:22:05;101577.06;;;8.95;68.48
30516;BME280;17297;54.022;10.760;2023-02-22T08:24:31;101584.94;;;8.97;68.54
30516;BME280;17297;54.022;10.760;2023-02-22T08:26:57;101578.94;;;9.03;68.78
30516;BME280;17297;54.022;10.760;2023-02-22T08:29:22;101571.25;;;9.08;68.52
30516;BME280;17297;54.022;10.760;2023-02-22T08:31:51;101566.56;;;9.10;68.43
30516;BME280;17297;54.022;10.760;2023-02-22T08:34:18;101578.63;;;9.14;68.56
30516;BME280;17297;54.022;10.760;2023-02-22T08:36:44;101576.97;;;9.13;68.51
30516;BME280;17297;54.022;10.760;2023-02-22T08:39:10;101574.28;;;9.13;68.71
30516;BME280;17297;54.022;10.760;2023-02-22T08:41:35;101568.91;;;9.13;68.71
30516;BME280;17297;54.022;10.760;2023-02-22T08:44:01;101566.06;;;9.15;68.48
30516;BME280;17297;54.022;10.760;2023-02-22T08:46:27;101562.53;;;9.14;68.49
30516;BME280;17297;54.022;10.760;2023-02-22T08:48:53;101560.34;;;9.10;68.54
30516;BME280;17297;54.022;10.760;2023-02-22T08:51:18;101564.03;;;9.09;68.56
30516;BME280;17297;54.022;10.760;2023-02-22T08:53:44;101564.84;;;9.09;68.72
30516;BME280;17297;54.022;10.760;2023-02-22T08:56:10;101558.00;;;9.07;68.61
30516;BME280;17297;54.022;10.760;2023-02-22T08:58:36;101559.66;;;9.08;68.81
30516;BME280;17297;54.022;10.760;2023-02-22T09:01:01;101558.31;;;9.04;68.96
30516;BME280;17297;54.022;10.760;2023-02-22T09:03:27;101561.16;;;9.02;68.97
30516;BME280;17297;54.022;10.760;2023-02-22T09:05:53;101565.34;;;9.05;68.84
30516;BME280;17297;54.022;10.760;2023-02-22T09:08:19;101555.97;;;9.09;69.12
30516;BME280;17297;54.022;10.760;2023-02-22T09:10:44;101558.31;;;9.12;69.04
30516;BME280;17297;54.022;10.760;2023-02-22T09:13:13;101550.97;;;9.14;69.09
30516;BME280;17297;54.022;10.760;2023-02-22T09:15:38;101546.28;;;9.16;69.13
30516;BME280;17297;54.022;10.760;2023-02-22T09:18:06;101545.25;;;9.17;69.07
30516;BME280;17297;54.022;10.760;2023-02-22T09:20:32;101537.03;;;9.18;68.82
30516;BME280;17297;54.022;10.760;2023-02-22T09:23:00;101537.88;;;9.19;68.85
30516;BME280;17297;54.022;10.760;2023-02-22T09:25:28;101532.34;;;9.20;68.85
30516;BME280;17297;54.022;10.760;2023-02-22T09:27:54;101525.81;;;9.23;68.96
30516;BME280;17297;54.022;10.760;2023-02-22T09:30:27;101528.16;;;9.26;68.98
30516;BME280;17297;54.022;10.760;2023-02-22T09:33:02;101534.03;;;9.30;69.07
30516;BME280;17297;54.022;10.760;2023-02-22T09:35:28;101529.19;;;9.33;68.92
30516;BME280;17297;54.022;10.760;2023-02-22T09:37:58;101525.31;;;9.36;69.14
30516;BME280;17297;54.022;10.760;2023-02-22T09:40:32;101523.31;;;9.38;69.22
30516;BME280;17297;54.022;10.760;2023-02-22T09:46:32;101524.66;;;9.34;69.01
30516;BME280;17297;54.022;10.760;2023-02-22T09:49:27;101520.25;;;9.24;69.04
30516;BME280;17297;54.022;10.760;2023-02-22T09:52:07;101522.13;;;9.16;69.16
30516;BME280;17297;54.022;10.760;2023-02-22T09:55:04;101515.19;;;9.05;69.38
30516;BME280;17297;54.022;10.760;2023-02-22T09:57:34;101516.53;;;9.01;69.41
30516;BME280;17297;54.022;10.760;2023-02-22T10:00:23;101510.78;;;8.88;69.65
30516;BME280;17297;54.022;10.760;2023-02-22T10:03:10;101517.66;;;8.82;69.63
30516;BME280;17297;54.022;10.760;2023-02-22T10:05:50;101518.00;;;8.79;69.72
30516;BME280;17297;54.022;10.760;2023-02-22T10:08:18;101509.25;;;8.77;70.02
30516;BME280;17297;54.022;10.760;2023-02-22T10:10:46;101511.78;;;8.78;70.04
30516;BME280;17297;54.022;10.760;2023-02-22T10:13:45;101515.97;;;8.81;70.28
30516;BME280;17297;54.022;10.760;2023-02-22T10:16:31;101511.78;;;8.87;70.11
30516;BME280;17297;54.022;10.760;2023-02-22T10:26:43;101507.31;;;9.04;70.62
30516;BME280;17297;54.022;10.760;2023-02-22T10:29:20;101507.00;;;9.07;70.60
30516;BME280;17297;54.022;10.760;2023-02-22T10:31:52;101510.34;;;9.09;70.60
30516;BME280;17297;54.022;10.760;2023-02-22T10:34:24;101504.81;;;9.10;70.30
30516;BME280;17297;54.022;10.760;2023-02-22T10:36:56;101498.44;;;9.11;70.44
30516;BME280;17297;54.022;10.760;2023-02-22T10:39:30;101502.47;;;9.15;70.20
30516;BME280;17297;54.022;10.760;2023-02-22T10:42:00;101498.28;;;9.21;70.32
30516;BME280;17297;54.022;10.760;2023-02-22T10:44:37;101494.78;;;9.29;70.51
30516;BME280;17297;54.022;10.760;2023-02-22T10:47:14;101494.94;;;9.35;70.39
30516;BME280;17297;54.022;10.760;2023-02-22T10:49:43;101483.53;;;9.41;70.11
30516;BME280;17297;54.022;10.760;2023-02-22T10:52:15;101490.94;;;9.47;70.22
30516;BME280;17297;54.022;10.760;2023-02-22T10:54:44;101493.09;;;9.52;70.15
30516;BME280;17297;54.022;10.760;2023-02-22T10:57:10;101492.28;;;9.60;70.19
30516;BME280;17297;54.022;10.760;2023-02-22T10:59:39;101493.44;;;9.65;70.07
30516;BME280;17297;54.022;10.760;2023-02-22T11:02:20;101482.88;;;9.72;70.29
30516;BME280;17297;54.022;10.760;2023-02-22T11:04:51;101480.50;;;9.77;69.94
30516;BME280;17297;54.022;10.760;2023-02-22T11:07:22;101481.84;;;9.81;69.82
30516;BME280;17297;54.022;10.760;2023-02-22T11:09:56;101483.81;;;9.87;70.04
30516;BME280;17297;54.022;10.760;2023-02-22T11:12:33;101483.34;;;9.92;69.86
30516;BME280;17297;54.022;10.760;2023-02-22T11:17:53;101482.66;;;10.06;70.04
30516;BME280;17297;54.022;10.760;2023-02-22T11:22:52;101469.50;;;10.11;69.59
30516;BME280;17297;54.022;10.760;2023-02-22T11:25:21;101472.19;;;10.11;69.49
30516;BME280;17297;54.022;10.760;2023-02-22T11:27:49;101465.97;;;10.11;69.64
30516;BME280;17297;54.022;10.760;2023-02-22T11:30:26;101466.81;;;10.11;69.65
30516;BME280;17297;54.022;10.760;2023-02-22T11:32:58;101465.81;;;10.12;69.24
30516;BME280;17297;54.022;10.760;2023-02-22T11:38:09;101453.41;;;10.03;69.50
30516;BME280;17297;54.022;10.760;2023-02-22T11:40:36;101452.75;;;10.01;69.44
30516;BME280;17297;54.022;10.760;2023-02-22T11:43:12;101448.06;;;9.95;69.38
30516;BME280;17297;54.022;10.760;2023-02-22T11:45:58;101444.38;;;9.88;69.39
30516;BME280;17297;54.022;10.760;2023-02-22T11:48:26;101437.66;;;9.84;69.38
30516;BME280;17297;54.022;10.760;2023-02-22T11:51:46;101430.47;;;9.76;69.79
30516;BME280;17297;54.022;10.760;2023-02-22T11:57:27;101426.78;;;9.69;70.03
30516;BME280;17297;54.022;10.760;2023-02-22T12:03:23;101420.06;;;9.65;70.50
30516;BME280;17297;54.022;10.760;2023-02-22T12:05:57;101414.88;;;9.63;70.77
30516;BME280;17297;54.022;10.760;2023-02-22T12:11:26;101402.09;;;9.65;70.92
30516;BME280;17297;54.022;10.760;2023-02-22T12:25:03;101400.56;;;9.79;71.00
30516;BME280;17297;54.022;10.760;2023-02-22T12:27:42;101401.06;;;9.83;70.89
30516;BME280;17297;54.022;10.760;2023-02-22T12:30:18;101389.78;;;9.87;70.83
30516;BME280;17297;54.022;10.760;2023-02-22T12:32:52;101387.75;;;9.89;70.78
30516;BME280;17297;54.022;10.760;2023-02-22T12:35:27;101383.53;;;9.95;70.92
30516;BME280;17297;54.022;10.760;2023-02-22T12:38:13;101385.88;;;9.98;70.70
30516;BME280;17297;54.022;10.760;2023-02-22T12:40:46;101387.41;;;10.01;70.84
30516;BME280;17297;54.022;10.760;2023-02-22T12:43:26;101386.03;;;10.05;71.02
30516;BME280;17297;54.022;10.760;2023-02-22T12:51:28;101374.56;;;10.19;71.08
30516;BME280;17297;54.022;10.760;2023-02-22T12:54:09;101370.19;;;10.26;71.05
30516;BME280;17297;54.022;10.760;2023-02-22T12:56:47;101371.13;;;10.33;70.94
30516;BME280;17297;54.022;10.760;2023-02-22T12:59:22;101372.84;;;10.34;70.72
30516;BME280;17297;54.022;10.760;2023-02-22T13:04:57;101366.78;;;10.32;70.63
30516;BME280;17297;54.022;10.760;2023-02-22T13:10:05;101366.75;;;10.40;70.61
30516;BME280;17297;54.022;10.760;2023-02-22T13:15:22;101355.75;;;10.50;70.93
30516;BME280;17297;54.022;10.760;2023-02-22T13:28:40;101345.34;;;10.70;70.69
30516;BME280;17297;54.022;10.760;2023-02-22T13:43:04;101336.69;;;10.83;70.43
30516;BME280;17297;54.022;10.760;2023-02-22T13:51:34;101336.16;;;10.88;70.11
30516;BME280;17297;54.022;10.760;2023-02-22T13:54:20;101331.59;;;10.88;70.11
30516;BME280;17297;54.022;10.760;2023-02-22T13:56:48;101329.06;;;10.86;70.09
30516;BME280;17297;54.022;10.760;2023-02-22T13:59:27;101323.91;;;10.85;70.28
30516;BME280;17297;54.022;10.760;2023-02-22T14:01:54;101324.25;;;10.82;69.90
30516;BME280;17297;54.022;10.760;2023-02-22T14:09:54;101328.84;;;10.73;70.00
30516;BME280;17297;54.022;10.760;2023-02-22T14:17:38;101325.22;;;10.66;69.82
30516;BME280;17297;54.022;10.760;2023-02-22T14:25:48;101323.59;;;10.57;69.85
30516;BME280;17297;54.022;10.760;2023-02-22T14:28:56;101324.78;;;10.54;69.87
30516;BME280;17297;54.022;10.760;2023-02-22T14:39:34;101316.84;;;10.38;70.10
30516;BME280;17297;54.022;10.760;2023-02-22T14:45:09;101317.00;;;10.36;69.89
30516;BME280;17297;54.022;10.760;2023-02-22T14:55:48;101310.16;;;10.26;70.22
30516;BME280;17297;54.022;10.760;2023-02-22T14:58:28;101311.34;;;10.23;70.02
30516;BME280;17297;54.022;10.760;2023-02-22T15:00:56;101309.69;;;10.22;70.14
30516;BME280;17297;54.022;10.760;2023-02-22T15:03:26;101313.56;;;10.20;70.08
30516;BME280;17297;54.022;10.760;2023-02-22T15:06:06;101300.25;;;10.18;70.15
30516;BME280;17297;54.022;10.760;2023-02-22T15:08:43;101305.16;;;10.14;70.21
30516;BME280;17297;54.022;10.760;2023-02-22T15:11:39;101294.97;;;10.10;70.37
30516;BME280;17297;54.022;10.760;2023-02-22T15:14:24;101300.00;;;10.05;70.24
30516;BME280;17297;54.022;10.760;2023-02-22T15:16:59;101299.53;;;10.01;70.23
30516;BME280;17297;54.022;10.760;2023-02-22T15:19:28;101297.19;;;9.98;70.41
30516;BME280;17297;54.022;10.760;2023-02-22T15:21:56;101298.22;;;9.97;70.46
30516;BME280;17297;54.022;10.760;2023-02-22T15:24:27;101299.56;;;9.93;70.46
30516;BME280;17297;54.022;10.760;2023-02-22T15:27:06;101296.38;;;9.89;70.49
30516;BME280;17297;54.022;10.760;2023-02-22T15:29:39;101292.19;;;9.87;70.54
30516;BME280;17297;54.022;10.760;2023-02-22T15:34:44;101290.03;;;9.82;70.54
30516;BME280;17297;54.022;10.760;2023-02-22T15:37:23;101284.19;;;9.79;70.92
30516;BME280;17297;54.022;10.760;2023-02-22T15:39:52;101292.41;;;9.77;70.72